sensor_id;sensor_type;location;lat;lon;timestamp;P1;durP1;ratioP1;P2;durP2;ratioP2
47273;SDS011;33007;49.082;19.306;2023-12-20T00:05:58;16.38;;;10.57;;
47273;SDS011;33007;49.082;19.306;2023-12-20T00:08:23;20.27;;;12.30;;
47273;SDS011;33007;49.082;19.306;2023-12-20T00:10:49;16.35;;;10.63;;
47273;SDS011;33007;49.082;19.306;2023-12-20T00:13:15;22.63;;;12.95;;
47273;SDS011;33007;49.082;19.306;2023-12-20T00:15:40;19.90;;;11.27;;
47273;SDS011;33007;49.082;19.306;2023-12-20T00:18:06;19.65;;;12.55;;
47273;SDS011;33007;49.082;19.306;2023-12-20T00:20:32;17.95;;;11.07;;
47273;SDS011;33007;49.082;19.306;2023-12-20T00:22:57;16.67;;;11.43;;
47273;SDS011;33007;49.082;19.306;2023-12-20T00:25:23;15.75;;;10.40;;
47273;SDS011;33007;49.082;19.306;2023-12-20T00:27:49;18.52;;;11.48;;
47273;SDS011;33007;49.082;19.306;2023-12-20T00:30:15;17.42;;;12.77;;
47273;SDS011;33007;49.082;19.306;2023-12-20T00:32:41;13.55;;;9.15;;
47273;SDS011;33007;49.082;19.306;2023-12-20T00:35:12;14.07;;;9.90;;
47273;SDS011;33007;49.082;19.306;2023-12-20T00:37:39;12.75;;;9.43;;
47273;SDS011;33007;49.082;19.306;2023-12-20T00:40:04;11.57;;;8.55;;
47273;SDS011;33007;49.082;19.306;2023-12-20T00:42:31;12.55;;;9.05;;
47273;SDS011;33007;49.082;19.306;2023-12-20T00:44:58;11.73;;;8.63;;
47273;SDS011;33007;49.082;19.306;2023-12-20T00:47:24;14.75;;;12.13;;
47273;SDS011;33007;49.082;19.306;2023-12-20T00:49:50;19.35;;;13.27;;
47273;SDS011;33007;49.082;19.306;2023-12-20T00:52:16;12.82;;;9.27;;
47273;SDS011;33007;49.082;19.306;2023-12-20T00:54:42;15.55;;;10.45;;
47273;SDS011;33007;49.082;19.306;2023-12-20T00:57:08;14.73;;;10.88;;
47273;SDS011;33007;49.082;19.306;2023-12-20T00:59:34;19.98;;;12.88;;
47273;SDS011;33007;49.082;19.306;2023-12-20T01:02:00;15.95;;;10.80;;
47273;SDS011;33007;49.082;19.306;2023-12-20T01:04:26;17.13;;;12.05;;
47273;SDS011;33007;49.082;19.306;2023-12-20T01:06:51;14.70;;;10.98;;
47273;SDS011;33007;49.082;19.306;2023-12-20T01:09:17;15.35;;;10.23;;
47273;SDS011;33007;49.082;19.306;2023-12-20T01:11:43;13.25;;;10.07;;
47273;SDS011;33007;49.082;19.306;2023-12-20T01:14:09;11.80;;;9.35;;
47273;SDS011;33007;49.082;19.306;2023-12-20T01:16:35;14.15;;;10.43;;
47273;SDS011;33007;49.082;19.306;2023-12-20T01:19:01;10.73;;;8.73;;
47273;SDS011;33007;49.082;19.306;2023-12-20T01:21:26;14.55;;;10.60;;
47273;SDS011;33007;49.082;19.306;2023-12-20T01:23:52;17.75;;;11.85;;
47273;SDS011;33007;49.082;19.306;2023-12-20T01:26:18;10.82;;;8.38;;
47273;SDS011;33007;49.082;19.306;2023-12-20T01:28:43;11.30;;;8.07;;
47273;SDS011;33007;49.082;19.306;2023-12-20T01:31:09;9.70;;;7.32;;
47273;SDS011;33007;49.082;19.306;2023-12-20T01:33:35;20.83;;;11.38;;
47273;SDS011;33007;49.082;19.306;2023-12-20T01:36:00;11.00;;;8.82;;
47273;SDS011;33007;49.082;19.306;2023-12-20T01:38:26;10.55;;;7.47;;
47273;SDS011;33007;49.082;19.306;2023-12-20T01:40:52;11.65;;;8.60;;
47273;SDS011;33007;49.082;19.306;2023-12-20T01:43:17;9.35;;;7.65;;
47273;SDS011;33007;49.082;19.306;2023-12-20T01:45:43;11.32;;;7.38;;
47273;SDS011;33007;49.082;19.306;2023-12-20T01:48:09;11.43;;;8.77;;
47273;SDS011;33007;49.082;19.306;2023-12-20T01:50:36;7.85;;;6.72;;
47273;SDS011;33007;49.082;19.306;2023-12-20T01:53:03;8.15;;;6.43;;
47273;SDS011;33007;49.082;19.306;2023-12-20T01:55:31;14.43;;;9.38;;
47273;SDS011;33007;49.082;19.306;2023-12-20T01:57:59;8.65;;;6.07;;
47273;SDS011;33007;49.082;19.306;2023-12-20T02:00:29;10.88;;;8.77;;
47273;SDS011;33007;49.082;19.306;2023-12-20T02:02:56;13.60;;;10.10;;
47273;SDS011;33007;49.082;19.306;2023-12-20T02:05:23;9.45;;;7.70;;
47273;SDS011;33007;49.082;19.306;2023-12-20T02:07:50;7.82;;;6.35;;
47273;SDS011;33007;49.082;19.306;2023-12-20T02:10:16;6.68;;;5.40;;
47273;SDS011;33007;49.082;19.306;2023-12-20T02:12:42;7.05;;;5.03;;
47273;SDS011;33007;49.082;19.306;2023-12-20T02:15:08;8.43;;;6.00;;
47273;SDS011;33007;49.082;19.306;2023-12-20T02:17:33;6.93;;;5.25;;
47273;SDS011;33007;49.082;19.306;2023-12-20T02:20:01;9.30;;;7.30;;
47273;SDS011;33007;49.082;19.306;2023-12-20T02:22:27;7.75;;;6.22;;
47273;SDS011;33007;49.082;19.306;2023-12-20T02:24:53;7.60;;;6.03;;
47273;SDS011;33007;49.082;19.306;2023-12-20T02:27:19;13.50;;;9.55;;
47273;SDS011;33007;49.082;19.306;2023-12-20T02:29:46;8.02;;;6.38;;
47273;SDS011;33007;49.082;19.306;2023-12-20T02:32:13;7.95;;;6.30;;
47273;SDS011;33007;49.082;19.306;2023-12-20T02:34:39;8.18;;;6.05;;
47273;SDS011;33007;49.082;19.306;2023-12-20T02:37:04;7.90;;;6.72;;
47273;SDS011;33007;49.082;19.306;2023-12-20T02:39:30;11.43;;;8.63;;
47273;SDS011;33007;49.082;19.306;2023-12-20T02:41:56;8.68;;;7.40;;
47273;SDS011;33007;49.082;19.306;2023-12-20T02:44:21;9.73;;;7.55;;
47273;SDS011;33007;49.082;19.306;2023-12-20T02:46:47;8.27;;;6.35;;
47273;SDS011;33007;49.082;19.306;2023-12-20T02:49:13;7.68;;;5.95;;
47273;SDS011;33007;49.082;19.306;2023-12-20T02:51:39;9.27;;;6.60;;
47273;SDS011;33007;49.082;19.306;2023-12-20T02:54:04;7.35;;;6.35;;
47273;SDS011;33007;49.082;19.306;2023-12-20T02:56:31;8.80;;;6.55;;
47273;SDS011;33007;49.082;19.306;2023-12-20T02:58:59;7.18;;;5.65;;
47273;SDS011;33007;49.082;19.306;2023-12-20T03:01:26;9.02;;;7.72;;
47273;SDS011;33007;49.082;19.306;2023-12-20T03:03:52;8.02;;;6.78;;
47273;SDS011;33007;49.082;19.306;2023-12-20T03:06:18;8.43;;;7.05;;
47273;SDS011;33007;49.082;19.306;2023-12-20T03:08:44;7.75;;;6.28;;
47273;SDS011;33007;49.082;19.306;2023-12-20T03:11:10;7.25;;;5.50;;
47273;SDS011;33007;49.082;19.306;2023-12-20T03:13:36;8.15;;;6.38;;
47273;SDS011;33007;49.082;19.306;2023-12-20T03:16:08;9.38;;;6.93;;
47273;SDS011;33007;49.082;19.306;2023-12-20T03:18:35;10.60;;;7.97;;
47273;SDS011;33007;49.082;19.306;2023-12-20T03:21:01;7.03;;;5.55;;
47273;SDS011;33007;49.082;19.306;2023-12-20T03:23:26;7.60;;;6.03;;
47273;SDS011;33007;49.082;19.306;2023-12-20T03:25:52;9.18;;;6.97;;
47273;SDS011;33007;49.082;19.306;2023-12-20T03:28:18;8.15;;;6.32;;
47273;SDS011;33007;49.082;19.306;2023-12-20T03:30:44;8.20;;;6.22;;
47273;SDS011;33007;49.082;19.306;2023-12-20T03:33:10;11.50;;;9.02;;
47273;SDS011;33007;49.082;19.306;2023-12-20T03:35:35;8.80;;;6.15;;
47273;SDS011;33007;49.082;19.306;2023-12-20T03:38:02;9.48;;;6.85;;
47273;SDS011;33007;49.082;19.306;2023-12-20T03:40:27;8.43;;;6.50;;
47273;SDS011;33007;49.082;19.306;2023-12-20T03:42:53;17.30;;;11.57;;
47273;SDS011;33007;49.082;19.306;2023-12-20T03:45:19;7.30;;;6.30;;
47273;SDS011;33007;49.082;19.306;2023-12-20T03:47:44;8.88;;;6.30;;
47273;SDS011;33007;49.082;19.306;2023-12-20T03:50:10;19.23;;;12.45;;
47273;SDS011;33007;49.082;19.306;2023-12-20T03:52:36;7.68;;;6.32;;
47273;SDS011;33007;49.082;19.306;2023-12-20T03:55:01;9.05;;;6.93;;
47273;SDS011;33007;49.082;19.306;2023-12-20T03:57:27;13.57;;;8.88;;
47273;SDS011;33007;49.082;19.306;2023-12-20T03:59:53;7.03;;;5.57;;
47273;SDS011;33007;49.082;19.306;2023-12-20T04:02:18;8.35;;;6.07;;
47273;SDS011;33007;49.082;19.306;2023-12-20T04:04:44;19.60;;;11.38;;
47273;SDS011;33007;49.082;19.306;2023-12-20T04:07:10;13.13;;;8.70;;
47273;SDS011;33007;49.082;19.306;2023-12-20T04:09:35;19.90;;;12.20;;
47273;SDS011;33007;49.082;19.306;2023-12-20T04:12:01;13.38;;;9.70;;
47273;SDS011;33007;49.082;19.306;2023-12-20T04:14:27;17.63;;;11.90;;
47273;SDS011;33007;49.082;19.306;2023-12-20T04:16:52;19.52;;;12.48;;
47273;SDS011;33007;49.082;19.306;2023-12-20T04:19:18;15.93;;;10.68;;
47273;SDS011;33007;49.082;19.306;2023-12-20T04:21:44;10.73;;;8.25;;
47273;SDS011;33007;49.082;19.306;2023-12-20T04:24:09;15.57;;;10.57;;
47273;SDS011;33007;49.082;19.306;2023-12-20T04:26:35;16.65;;;11.43;;
47273;SDS011;33007;49.082;19.306;2023-12-20T04:29:01;15.25;;;11.55;;
47273;SDS011;33007;49.082;19.306;2023-12-20T04:31:26;8.48;;;7.25;;
47273;SDS011;33007;49.082;19.306;2023-12-20T04:33:52;9.93;;;7.30;;
47273;SDS011;33007;49.082;19.306;2023-12-20T04:36:18;14.43;;;9.68;;
47273;SDS011;33007;49.082;19.306;2023-12-20T04:38:44;9.57;;;6.72;;
47273;SDS011;33007;49.082;19.306;2023-12-20T04:41:09;11.52;;;8.10;;
47273;SDS011;33007;49.082;19.306;2023-12-20T04:43:35;17.67;;;11.10;;
47273;SDS011;33007;49.082;19.306;2023-12-20T04:46:01;10.77;;;7.72;;
47273;SDS011;33007;49.082;19.306;2023-12-20T04:48:27;10.98;;;7.07;;
47273;SDS011;33007;49.082;19.306;2023-12-20T04:50:53;8.30;;;6.30;;
47273;SDS011;33007;49.082;19.306;2023-12-20T04:53:18;11.02;;;8.10;;
47273;SDS011;33007;49.082;19.306;2023-12-20T04:55:44;8.75;;;6.65;;
47273;SDS011;33007;49.082;19.306;2023-12-20T04:58:10;9.45;;;6.78;;
47273;SDS011;33007;49.082;19.306;2023-12-20T05:00:35;13.00;;;8.75;;
47273;SDS011;33007;49.082;19.306;2023-12-20T05:03:01;11.32;;;8.23;;
47273;SDS011;33007;49.082;19.306;2023-12-20T05:05:26;10.70;;;7.35;;
47273;SDS011;33007;49.082;19.306;2023-12-20T05:07:52;10.65;;;7.75;;
47273;SDS011;33007;49.082;19.306;2023-12-20T05:10:18;11.75;;;7.70;;
47273;SDS011;33007;49.082;19.306;2023-12-20T05:12:43;11.23;;;7.60;;
47273;SDS011;33007;49.082;19.306;2023-12-20T05:15:09;17.98;;;12.77;;
47273;SDS011;33007;49.082;19.306;2023-12-20T05:17:34;10.40;;;7.65;;
47273;SDS011;33007;49.082;19.306;2023-12-20T05:20:00;8.95;;;6.93;;
47273;SDS011;33007;49.082;19.306;2023-12-20T05:22:26;11.68;;;8.48;;
47273;SDS011;33007;49.082;19.306;2023-12-20T05:24:52;12.43;;;8.10;;
47273;SDS011;33007;49.082;19.306;2023-12-20T05:27:18;10.63;;;7.22;;
47273;SDS011;33007;49.082;19.306;2023-12-20T05:29:44;8.30;;;6.70;;
47273;SDS011;33007;49.082;19.306;2023-12-20T05:32:09;9.32;;;6.90;;
47273;SDS011;33007;49.082;19.306;2023-12-20T05:34:35;11.15;;;8.68;;
47273;SDS011;33007;49.082;19.306;2023-12-20T05:37:01;10.07;;;7.45;;
47273;SDS011;33007;49.082;19.306;2023-12-20T05:39:27;10.00;;;7.65;;
47273;SDS011;33007;49.082;19.306;2023-12-20T05:41:53;12.07;;;9.38;;
47273;SDS011;33007;49.082;19.306;2023-12-20T05:44:18;8.77;;;6.57;;
47273;SDS011;33007;49.082;19.306;2023-12-20T05:46:44;11.02;;;7.18;;
47273;SDS011;33007;49.082;19.306;2023-12-20T05:49:10;7.40;;;6.43;;
47273;SDS011;33007;49.082;19.306;2023-12-20T05:51:37;8.73;;;6.70;;
47273;SDS011;33007;49.082;19.306;2023-12-20T05:54:02;8.05;;;6.47;;
47273;SDS011;33007;49.082;19.306;2023-12-20T05:56:28;7.60;;;6.40;;
47273;SDS011;33007;49.082;19.306;2023-12-20T05:58:53;9.10;;;7.28;;
47273;SDS011;33007;49.082;19.306;2023-12-20T06:01:19;9.05;;;6.50;;
47273;SDS011;33007;49.082;19.306;2023-12-20T06:03:44;8.55;;;7.22;;
47273;SDS011;33007;49.082;19.306;2023-12-20T06:06:13;8.85;;;7.68;;
47273;SDS011;33007;49.082;19.306;2023-12-20T06:08:39;8.70;;;6.95;;
47273;SDS011;33007;49.082;19.306;2023-12-20T06:11:04;9.43;;;7.03;;
47273;SDS011;33007;49.082;19.306;2023-12-20T06:13:50;7.63;;;6.43;;
47273;SDS011;33007;49.082;19.306;2023-12-20T06:16:18;10.90;;;7.45;;
47273;SDS011;33007;49.082;19.306;2023-12-20T06:18:43;8.60;;;6.82;;
47273;SDS011;33007;49.082;19.306;2023-12-20T06:21:10;9.20;;;7.28;;
47273;SDS011;33007;49.082;19.306;2023-12-20T06:23:41;9.00;;;6.93;;
47273;SDS011;33007;49.082;19.306;2023-12-20T06:26:07;12.30;;;8.30;;
47273;SDS011;33007;49.082;19.306;2023-12-20T06:28:33;11.52;;;8.43;;
47273;SDS011;33007;49.082;19.306;2023-12-20T06:30:59;9.93;;;7.30;;
47273;SDS011;33007;49.082;19.306;2023-12-20T06:33:26;9.30;;;7.18;;
47273;SDS011;33007;49.082;19.306;2023-12-20T06:35:51;10.15;;;7.82;;
47273;SDS011;33007;49.082;19.306;2023-12-20T06:38:17;7.72;;;6.55;;
47273;SDS011;33007;49.082;19.306;2023-12-20T06:40:43;10.65;;;7.95;;
47273;SDS011;33007;49.082;19.306;2023-12-20T06:43:10;9.05;;;7.57;;
47273;SDS011;33007;49.082;19.306;2023-12-20T06:45:37;7.63;;;6.32;;
47273;SDS011;33007;49.082;19.306;2023-12-20T06:48:02;9.35;;;7.13;;
47273;SDS011;33007;49.082;19.306;2023-12-20T06:50:28;10.63;;;8.13;;
47273;SDS011;33007;49.082;19.306;2023-12-20T06:52:54;8.60;;;6.97;;
47273;SDS011;33007;49.082;19.306;2023-12-20T06:55:20;10.38;;;7.40;;
47273;SDS011;33007;49.082;19.306;2023-12-20T06:57:45;11.77;;;9.25;;
47273;SDS011;33007;49.082;19.306;2023-12-20T07:00:11;13.10;;;10.30;;
47273;SDS011;33007;49.082;19.306;2023-12-20T07:02:38;11.15;;;8.18;;
47273;SDS011;33007;49.082;19.306;2023-12-20T07:05:03;16.52;;;12.68;;
47273;SDS011;33007;49.082;19.306;2023-12-20T07:07:29;12.05;;;8.20;;
47273;SDS011;33007;49.082;19.306;2023-12-20T07:09:55;11.63;;;9.20;;
47273;SDS011;33007;49.082;19.306;2023-12-20T07:12:21;12.40;;;9.82;;
47273;SDS011;33007;49.082;19.306;2023-12-20T07:14:46;13.15;;;10.52;;
47273;SDS011;33007;49.082;19.306;2023-12-20T07:17:12;15.07;;;11.82;;
47273;SDS011;33007;49.082;19.306;2023-12-20T07:19:40;11.88;;;9.35;;
47273;SDS011;33007;49.082;19.306;2023-12-20T07:22:06;13.27;;;10.18;;
47273;SDS011;33007;49.082;19.306;2023-12-20T07:24:32;11.98;;;9.35;;
47273;SDS011;33007;49.082;19.306;2023-12-20T07:26:59;12.75;;;9.43;;
47273;SDS011;33007;49.082;19.306;2023-12-20T07:29:27;12.38;;;9.05;;
47273;SDS011;33007;49.082;19.306;2023-12-20T07:31:53;13.10;;;10.07;;
47273;SDS011;33007;49.082;19.306;2023-12-20T07:34:22;12.70;;;9.05;;
47273;SDS011;33007;49.082;19.306;2023-12-20T07:36:48;10.38;;;8.65;;
47273;SDS011;33007;49.082;19.306;2023-12-20T07:39:14;14.73;;;10.82;;
47273;SDS011;33007;49.082;19.306;2023-12-20T07:41:39;10.38;;;7.93;;
47273;SDS011;33007;49.082;19.306;2023-12-20T07:44:06;13.52;;;8.88;;
47273;SDS011;33007;49.082;19.306;2023-12-20T07:46:32;9.93;;;7.95;;
47273;SDS011;33007;49.082;19.306;2023-12-20T07:48:57;13.75;;;11.38;;
47273;SDS011;33007;49.082;19.306;2023-12-20T07:51:23;12.45;;;9.38;;
47273;SDS011;33007;49.082;19.306;2023-12-20T07:53:49;14.38;;;11.77;;
47273;SDS011;33007;49.082;19.306;2023-12-20T07:56:18;11.40;;;8.52;;
47273;SDS011;33007;49.082;19.306;2023-12-20T07:58:44;13.13;;;9.83;;
47273;SDS011;33007;49.082;19.306;2023-12-20T08:01:11;10.23;;;8.35;;
47273;SDS011;33007;49.082;19.306;2023-12-20T08:03:37;13.15;;;10.25;;
47273;SDS011;33007;49.082;19.306;2023-12-20T08:06:03;12.60;;;10.30;;
47273;SDS011;33007;49.082;19.306;2023-12-20T08:08:29;12.40;;;9.55;;
47273;SDS011;33007;49.082;19.306;2023-12-20T08:10:55;13.13;;;10.82;;
47273;SDS011;33007;49.082;19.306;2023-12-20T08:13:24;12.07;;;8.88;;
47273;SDS011;33007;49.082;19.306;2023-12-20T08:15:51;14.52;;;11.57;;
47273;SDS011;33007;49.082;19.306;2023-12-20T08:18:18;12.40;;;9.13;;
47273;SDS011;33007;49.082;19.306;2023-12-20T08:20:44;12.60;;;9.57;;
47273;SDS011;33007;49.082;19.306;2023-12-20T08:23:10;11.10;;;8.85;;
47273;SDS011;33007;49.082;19.306;2023-12-20T08:25:35;14.18;;;10.40;;
47273;SDS011;33007;49.082;19.306;2023-12-20T08:28:04;14.32;;;11.18;;
47273;SDS011;33007;49.082;19.306;2023-12-20T08:30:30;15.25;;;11.13;;
47273;SDS011;33007;49.082;19.306;2023-12-20T08:32:59;22.30;;;15.65;;
47273;SDS011;33007;49.082;19.306;2023-12-20T08:35:25;13.18;;;10.70;;
47273;SDS011;33007;49.082;19.306;2023-12-20T08:37:50;17.85;;;12.70;;
47273;SDS011;33007;49.082;19.306;2023-12-20T08:40:16;20.63;;;14.07;;
47273;SDS011;33007;49.082;19.306;2023-12-20T08:42:41;20.80;;;14.40;;
47273;SDS011;33007;49.082;19.306;2023-12-20T08:45:07;18.67;;;14.20;;
47273;SDS011;33007;49.082;19.306;2023-12-20T08:47:33;18.17;;;14.00;;
47273;SDS011;33007;49.082;19.306;2023-12-20T08:49:59;20.50;;;16.65;;
47273;SDS011;33007;49.082;19.306;2023-12-20T08:52:25;19.08;;;14.73;;
47273;SDS011;33007;49.082;19.306;2023-12-20T08:54:52;18.40;;;14.45;;
47273;SDS011;33007;49.082;19.306;2023-12-20T08:57:22;17.75;;;13.68;;
47273;SDS011;33007;49.082;19.306;2023-12-20T08:59:50;15.10;;;12.10;;
47273;SDS011;33007;49.082;19.306;2023-12-20T09:02:16;18.88;;;13.88;;
47273;SDS011;33007;49.082;19.306;2023-12-20T09:04:43;14.70;;;11.25;;
47273;SDS011;33007;49.082;19.306;2023-12-20T09:07:24;13.15;;;10.75;;
47273;SDS011;33007;49.082;19.306;2023-12-20T09:09:51;14.07;;;11.32;;
47273;SDS011;33007;49.082;19.306;2023-12-20T09:12:17;14.05;;;10.80;;
47273;SDS011;33007;49.082;19.306;2023-12-20T09:14:44;14.60;;;10.82;;
47273;SDS011;33007;49.082;19.306;2023-12-20T09:17:14;17.20;;;12.37;;
47273;SDS011;33007;49.082;19.306;2023-12-20T09:19:41;15.68;;;12.80;;
47273;SDS011;33007;49.082;19.306;2023-12-20T09:22:09;12.07;;;9.95;;
47273;SDS011;33007;49.082;19.306;2023-12-20T09:24:35;12.77;;;10.85;;
47273;SDS011;33007;49.082;19.306;2023-12-20T09:27:01;11.07;;;8.85;;
47273;SDS011;33007;49.082;19.306;2023-12-20T09:29:27;14.45;;;12.02;;
47273;SDS011;33007;49.082;19.306;2023-12-20T09:31:53;15.80;;;12.45;;
47273;SDS011;33007;49.082;19.306;2023-12-20T09:34:19;13.88;;;10.98;;
47273;SDS011;33007;49.082;19.306;2023-12-20T09:36:46;20.17;;;13.50;;
47273;SDS011;33007;49.082;19.306;2023-12-20T09:39:17;14.05;;;10.32;;
47273;SDS011;33007;49.082;19.306;2023-12-20T09:42:06;14.85;;;11.77;;
47273;SDS011;33007;49.082;19.306;2023-12-20T09:44:32;13.90;;;10.73;;
47273;SDS011;33007;49.082;19.306;2023-12-20T09:47:00;19.02;;;12.93;;
47273;SDS011;33007;49.082;19.306;2023-12-20T09:49:28;14.95;;;11.40;;
47273;SDS011;33007;49.082;19.306;2023-12-20T09:51:55;18.02;;;13.25;;
47273;SDS011;33007;49.082;19.306;2023-12-20T09:54:21;14.73;;;12.27;;
47273;SDS011;33007;49.082;19.306;2023-12-20T09:56:48;16.52;;;12.75;;
47273;SDS011;33007;49.082;19.306;2023-12-20T09:59:14;13.18;;;8.63;;
47273;SDS011;33007;49.082;19.306;2023-12-20T10:01:40;5.63;;;4.72;;
47273;SDS011;33007;49.082;19.306;2023-12-20T10:04:06;5.20;;;3.60;;
47273;SDS011;33007;49.082;19.306;2023-12-20T10:06:37;3.15;;;2.70;;
47273;SDS011;33007;49.082;19.306;2023-12-20T10:09:06;2.22;;;2.03;;
47273;SDS011;33007;49.082;19.306;2023-12-20T10:11:32;2.88;;;2.20;;
47273;SDS011;33007;49.082;19.306;2023-12-20T10:14:00;1.98;;;1.73;;
47273;SDS011;33007;49.082;19.306;2023-12-20T10:16:26;1.90;;;1.52;;
47273;SDS011;33007;49.082;19.306;2023-12-20T10:18:53;2.58;;;2.08;;
47273;SDS011;33007;49.082;19.306;2023-12-20T10:21:19;2.15;;;1.70;;
47273;SDS011;33007;49.082;19.306;2023-12-20T10:23:45;1.23;;;1.13;;
47273;SDS011;33007;49.082;19.306;2023-12-20T10:26:18;1.30;;;1.20;;
47273;SDS011;33007;49.082;19.306;2023-12-20T10:28:46;1.65;;;1.55;;
47273;SDS011;33007;49.082;19.306;2023-12-20T10:31:31;2.15;;;1.50;;
47273;SDS011;33007;49.082;19.306;2023-12-20T10:33:58;1.30;;;1.05;;
47273;SDS011;33007;49.082;19.306;2023-12-20T10:36:26;2.13;;;1.63;;
47273;SDS011;33007;49.082;19.306;2023-12-20T10:38:52;1.92;;;1.48;;
47273;SDS011;33007;49.082;19.306;2023-12-20T10:41:21;1.90;;;1.70;;
47273;SDS011;33007;49.082;19.306;2023-12-20T10:44:00;1.80;;;1.30;;
47273;SDS011;33007;49.082;19.306;2023-12-20T10:46:28;5.60;;;1.92;;
47273;SDS011;33007;49.082;19.306;2023-12-20T10:48:55;2.00;;;1.65;;
47273;SDS011;33007;49.082;19.306;2023-12-20T10:51:22;2.20;;;1.80;;
47273;SDS011;33007;49.082;19.306;2023-12-20T10:53:49;1.58;;;1.33;;
47273;SDS011;33007;49.082;19.306;2023-12-20T10:56:16;1.92;;;1.60;;
47273;SDS011;33007;49.082;19.306;2023-12-20T10:58:43;3.22;;;1.50;;
47273;SDS011;33007;49.082;19.306;2023-12-20T11:01:10;1.70;;;1.50;;
47273;SDS011;33007;49.082;19.306;2023-12-20T11:03:38;2.15;;;1.73;;
47273;SDS011;33007;49.082;19.306;2023-12-20T11:06:27;2.83;;;1.92;;
47273;SDS011;33007;49.082;19.306;2023-12-20T11:14:34;3.25;;;1.80;;
47273;SDS011;33007;49.082;19.306;2023-12-20T11:17:08;1.70;;;1.60;;
47273;SDS011;33007;49.082;19.306;2023-12-20T11:19:36;1.23;;;1.13;;
47273;SDS011;33007;49.082;19.306;2023-12-20T11:22:04;1.65;;;1.30;;
47273;SDS011;33007;49.082;19.306;2023-12-20T11:24:31;1.48;;;1.10;;
47273;SDS011;33007;49.082;19.306;2023-12-20T11:26:59;0.98;;;0.90;;
47273;SDS011;33007;49.082;19.306;2023-12-20T11:29:29;1.15;;;1.05;;
47273;SDS011;33007;49.082;19.306;2023-12-20T11:32:03;1.10;;;0.98;;
47273;SDS011;33007;49.082;19.306;2023-12-20T11:34:32;1.23;;;1.00;;
47273;SDS011;33007;49.082;19.306;2023-12-20T11:36:59;1.35;;;1.25;;
47273;SDS011;33007;49.082;19.306;2023-12-20T11:39:25;1.38;;;1.20;;
47273;SDS011;33007;49.082;19.306;2023-12-20T11:41:55;1.55;;;1.45;;
47273;SDS011;33007;49.082;19.306;2023-12-20T11:44:22;1.55;;;1.27;;
47273;SDS011;33007;49.082;19.306;2023-12-20T11:46:48;2.83;;;1.52;;
47273;SDS011;33007;49.082;19.306;2023-12-20T11:49:14;2.50;;;1.73;;
47273;SDS011;33007;49.082;19.306;2023-12-20T11:51:40;1.92;;;1.67;;
47273;SDS011;33007;49.082;19.306;2023-12-20T11:54:07;1.80;;;1.60;;
47273;SDS011;33007;49.082;19.306;2023-12-20T11:56:35;2.80;;;1.60;;
47273;SDS011;33007;49.082;19.306;2023-12-20T11:59:01;1.60;;;1.25;;
47273;SDS011;33007;49.082;19.306;2023-12-20T12:01:28;1.77;;;1.40;;
47273;SDS011;33007;49.082;19.306;2023-12-20T12:04:03;1.95;;;1.63;;
47273;SDS011;33007;49.082;19.306;2023-12-20T12:06:30;3.22;;;2.63;;
47273;SDS011;33007;49.082;19.306;2023-12-20T12:08:59;2.58;;;2.00;;
47273;SDS011;33007;49.082;19.306;2023-12-20T12:11:24;2.75;;;2.30;;
47273;SDS011;33007;49.082;19.306;2023-12-20T12:13:50;2.58;;;1.90;;
47273;SDS011;33007;49.082;19.306;2023-12-20T12:16:22;1.88;;;1.60;;
47273;SDS011;33007;49.082;19.306;2023-12-20T12:18:57;4.80;;;3.05;;
47273;SDS011;33007;49.082;19.306;2023-12-20T12:21:24;4.05;;;2.70;;
47273;SDS011;33007;49.082;19.306;2023-12-20T12:23:50;3.28;;;2.30;;
47273;SDS011;33007;49.082;19.306;2023-12-20T12:26:15;3.55;;;1.58;;
47273;SDS011;33007;49.082;19.306;2023-12-20T12:28:41;1.30;;;1.20;;
47273;SDS011;33007;49.082;19.306;2023-12-20T12:31:07;1.70;;;1.55;;
47273;SDS011;33007;49.082;19.306;2023-12-20T12:33:40;1.42;;;1.20;;
47273;SDS011;33007;49.082;19.306;2023-12-20T12:36:06;1.30;;;1.15;;
47273;SDS011;33007;49.082;19.306;2023-12-20T12:38:33;1.20;;;0.95;;
47273;SDS011;33007;49.082;19.306;2023-12-20T12:40:59;1.20;;;1.10;;
47273;SDS011;33007;49.082;19.306;2023-12-20T12:43:25;1.00;;;0.90;;
47273;SDS011;33007;49.082;19.306;2023-12-20T12:45:51;0.60;;;0.60;;
47273;SDS011;33007;49.082;19.306;2023-12-20T12:48:17;1.38;;;1.00;;
47273;SDS011;33007;49.082;19.306;2023-12-20T12:50:43;1.58;;;1.05;;
47273;SDS011;33007;49.082;19.306;2023-12-20T12:53:09;0.77;;;0.77;;
47273;SDS011;33007;49.082;19.306;2023-12-20T12:55:34;1.08;;;0.98;;
47273;SDS011;33007;49.082;19.306;2023-12-20T12:58:01;0.77;;;0.77;;
47273;SDS011;33007;49.082;19.306;2023-12-20T13:00:27;0.90;;;0.90;;
47273;SDS011;33007;49.082;19.306;2023-12-20T13:02:52;1.00;;;0.75;;
47273;SDS011;33007;49.082;19.306;2023-12-20T13:05:18;0.60;;;0.60;;
47273;SDS011;33007;49.082;19.306;2023-12-20T13:11:05;1.10;;;1.00;;
47273;SDS011;33007;49.082;19.306;2023-12-20T13:13:31;1.67;;;1.58;;
47273;SDS011;33007;49.082;19.306;2023-12-20T13:15:56;0.82;;;0.82;;
47273;SDS011;33007;49.082;19.306;2023-12-20T13:18:22;0.90;;;0.90;;
47273;SDS011;33007;49.082;19.306;2023-12-20T13:20:49;1.17;;;0.98;;
47273;SDS011;33007;49.082;19.306;2023-12-20T13:23:15;0.80;;;0.70;;
47273;SDS011;33007;49.082;19.306;2023-12-20T13:25:43;1.63;;;1.10;;
47273;SDS011;33007;49.082;19.306;2023-12-20T13:28:12;1.10;;;0.95;;
47273;SDS011;33007;49.082;19.306;2023-12-20T13:30:38;1.00;;;0.90;;
47273;SDS011;33007;49.082;19.306;2023-12-20T13:33:05;1.25;;;0.95;;
47273;SDS011;33007;49.082;19.306;2023-12-20T13:35:31;1.58;;;1.20;;
47273;SDS011;33007;49.082;19.306;2023-12-20T13:38:00;1.83;;;1.10;;
47273;SDS011;33007;49.082;19.306;2023-12-20T13:40:25;1.40;;;1.05;;
47273;SDS011;33007;49.082;19.306;2023-12-20T13:42:51;1.02;;;1.00;;
47273;SDS011;33007;49.082;19.306;2023-12-20T13:45:17;1.20;;;1.10;;
47273;SDS011;33007;49.082;19.306;2023-12-20T13:47:43;1.23;;;1.10;;
47273;SDS011;33007;49.082;19.306;2023-12-20T13:50:08;1.05;;;0.95;;
47273;SDS011;33007;49.082;19.306;2023-12-20T13:52:34;1.00;;;0.88;;
47273;SDS011;33007;49.082;19.306;2023-12-20T13:55:01;1.27;;;1.17;;
47273;SDS011;33007;49.082;19.306;2023-12-20T13:57:26;1.08;;;0.95;;
47273;SDS011;33007;49.082;19.306;2023-12-20T13:59:54;1.30;;;1.20;;
47273;SDS011;33007;49.082;19.306;2023-12-20T14:02:19;1.40;;;1.00;;
47273;SDS011;33007;49.082;19.306;2023-12-20T14:04:45;1.15;;;1.05;;
47273;SDS011;33007;49.082;19.306;2023-12-20T14:07:10;0.90;;;0.90;;
47273;SDS011;33007;49.082;19.306;2023-12-20T14:09:36;1.13;;;1.00;;
47273;SDS011;33007;49.082;19.306;2023-12-20T14:12:05;1.00;;;0.93;;
47273;SDS011;33007;49.082;19.306;2023-12-20T14:14:31;0.90;;;0.90;;
47273;SDS011;33007;49.082;19.306;2023-12-20T14:16:56;0.85;;;0.85;;
47273;SDS011;33007;49.082;19.306;2023-12-20T14:19:22;0.70;;;0.70;;
47273;SDS011;33007;49.082;19.306;2023-12-20T14:21:47;0.80;;;0.80;;
47273;SDS011;33007;49.082;19.306;2023-12-20T14:24:13;1.00;;;1.00;;
47273;SDS011;33007;49.082;19.306;2023-12-20T14:26:42;0.80;;;0.80;;
47273;SDS011;33007;49.082;19.306;2023-12-20T14:29:08;1.70;;;1.60;;
47273;SDS011;33007;49.082;19.306;2023-12-20T14:31:34;0.98;;;0.90;;
47273;SDS011;33007;49.082;19.306;2023-12-20T14:34:00;1.40;;;1.30;;
47273;SDS011;33007;49.082;19.306;2023-12-20T14:36:29;1.73;;;1.63;;